createdAt,value
2018-11-21T00:00:18.028Z,101597.07
2018-11-21T00:02:47.574Z,101584.23
2018-11-21T00:05:17.338Z,101588.06
2018-11-21T00:07:46.270Z,101592.19
2018-11-21T00:10:15.671Z,101598.45
2018-11-21T00:12:48.814Z,101597.56
2018-11-21T00:15:37.309Z,101601.22
2018-11-21T00:18:25.792Z,101595.56
2018-11-21T00:21:14.273Z,101595.09
2018-11-21T00:24:02.750Z,101593.88
2018-11-21T00:26:51.435Z,101600.53
2018-11-21T00:29:39.924Z,101603.19
2018-11-21T00:32:28.847Z,101600.82
2018-11-21T00:35:17.460Z,101597.38
2018-11-21T00:38:05.938Z,101609.58
2018-11-21T00:40:54.637Z,101607.20
2018-11-21T00:43:43.423Z,101602.47
2018-11-21T00:46:32.113Z,101603.41
2018-11-21T00:49:21.056Z,101604.57
2018-11-21T00:51:50.044Z,101606.97
2018-11-21T00:54:38.688Z,101620.35
2018-11-21T00:57:27.148Z,101604.66
2018-11-21T01:00:15.631Z,101613.04
2018-11-21T01:03:04.107Z,101621.11
2018-11-21T01:05:52.567Z,101619.81
2018-11-21T01:08:41.349Z,101616.59
2018-11-21T01:11:10.332Z,101609.30
2018-11-21T01:13:39.304Z,101606.81
2018-11-21T01:16:08.547Z,101606.89
2018-11-21T01:18:37.930Z,101603.61
2018-11-21T01:21:09.694Z,101599.70
2018-11-21T01:23:39.346Z,101610.19
2018-11-21T01:26:08.303Z,101601.89
2018-11-21T01:28:37.714Z,101603.30
2018-11-21T01:31:06.684Z,101598.02
2018-11-21T01:33:36.294Z,101603.88
2018-11-21T01:36:24.770Z,101606.91
2018-11-21T01:39:32.747Z,101601.48
2018-11-21T01:42:21.227Z,101606.75
2018-11-21T01:45:09.918Z,101600.32
2018-11-21T01:47:58.804Z,101603.80
2018-11-21T01:50:47.330Z,101610.86
2018-11-21T01:53:36.176Z,101610.38
2018-11-21T01:56:25.212Z,101604.95
2018-11-21T01:58:54.634Z,101607.73
2018-11-21T02:01:24.514Z,101615.08
2018-11-21T02:03:53.682Z,101622.08
2018-11-21T02:06:23.119Z,101619.98
2018-11-21T02:08:52.162Z,101615.91
2018-11-21T02:11:21.133Z,101616.08
2018-11-21T02:13:50.249Z,101612.23
2018-11-21T02:16:19.201Z,101609.72
2018-11-21T02:18:48.386Z,101611.84
2018-11-21T02:21:17.341Z,101613.63
2018-11-21T02:23:46.747Z,101611.88
2018-11-21T02:26:15.713Z,101610.70
2018-11-21T02:28:45.124Z,101607.27
2018-11-21T02:31:14.099Z,101613.68
2018-11-21T02:34:02.588Z,101609.03
2018-11-21T02:36:51.980Z,101613.01
2018-11-21T02:39:21.373Z,101615.82
2018-11-21T02:41:50.476Z,101619.10
2018-11-21T02:44:19.516Z,101615.78
2018-11-21T02:46:48.477Z,101612.77
2018-11-21T02:49:37.382Z,101625.90
2018-11-21T02:52:25.873Z,101620.68
2018-11-21T02:55:14.343Z,101614.25
2018-11-21T02:58:03.085Z,101624.98
2018-11-21T03:00:51.562Z,101626.77
2018-11-21T03:03:40.489Z,101630.68
2018-11-21T03:06:09.460Z,101643.89
2018-11-21T03:08:38.727Z,101632.81
2018-11-21T03:11:07.693Z,101631.74
2018-11-21T03:13:36.648Z,101630.78
2018-11-21T03:16:25.160Z,101635.33
2018-11-21T03:19:13.630Z,101636.25
2018-11-21T03:22:02.103Z,101639.20
2018-11-21T03:24:50.572Z,101633.73
2018-11-21T03:27:39.087Z,101646.19
2018-11-21T03:30:27.592Z,101642.19
2018-11-21T03:33:16.099Z,101647.58
2018-11-21T03:36:05.093Z,101645.79
2018-11-21T03:38:34.130Z,101648.02
2018-11-21T03:41:03.307Z,101656.61
2018-11-21T03:46:00.570Z,101655.97
2018-11-21T03:48:49.048Z,101650.04
2018-11-21T03:51:38.594Z,101648.50
2018-11-21T03:54:27.292Z,101656.69
2018-11-21T03:57:15.769Z,101649.47
2018-11-21T04:00:04.276Z,101657.40
2018-11-21T04:02:52.753Z,101658.83
2018-11-21T04:06:00.602Z,101659.30
2018-11-21T04:08:49.534Z,101663.23
2018-11-21T04:11:38.026Z,101661.09
2018-11-21T04:14:26.848Z,101655.50
2018-11-21T04:17:15.286Z,101655.64
2018-11-21T04:20:04.019Z,101661.41
2018-11-21T04:22:52.540Z,101660.98
2018-11-21T04:25:41.473Z,101661.13
2018-11-21T04:28:29.944Z,101661.02
2018-11-21T04:31:19.100Z,101661.69
2018-11-21T04:34:07.564Z,101651.93
2018-11-21T04:36:56.062Z,101662.81
2018-11-21T04:39:44.530Z,101664.81
2018-11-21T04:42:33.036Z,101665.81
2018-11-21T04:45:21.806Z,101668.32
2018-11-21T04:48:10.482Z,101667.25
2018-11-21T04:50:58.961Z,101677.30
2018-11-21T04:53:47.431Z,101682.41
2018-11-21T04:56:35.904Z,101680.66
2018-11-21T04:59:24.398Z,101675.83
2018-11-21T05:02:13.112Z,101669.55
2018-11-21T05:05:01.593Z,101665.93
2018-11-21T05:08:09.399Z,101674.14
2018-11-21T05:10:58.303Z,101674.16
2018-11-21T05:13:47.024Z,101671.86
2018-11-21T05:16:35.507Z,101680.25
2018-11-21T05:19:24.022Z,101678.95
2018-11-21T05:22:12.708Z,101686.61
2018-11-21T05:25:01.196Z,101685.59
2018-11-21T05:27:49.663Z,101685.06
2018-11-21T05:30:38.190Z,101685.72
2018-11-21T05:33:27.596Z,101692.76
2018-11-21T05:36:16.076Z,101691.60
2018-11-21T05:39:09.009Z,101693.50
2018-11-21T05:41:57.501Z,101701.05
2018-11-21T05:44:46.043Z,101693.84
2018-11-21T05:47:34.651Z,101693.52
2018-11-21T05:50:23.135Z,101701.24
2018-11-21T05:53:11.623Z,101705.17
2018-11-21T05:56:00.112Z,101707.11
2018-11-21T05:58:48.858Z,101708.41
2018-11-21T06:01:18.100Z,101717.17
2018-11-21T06:03:47.127Z,101720.72
2018-11-21T06:06:35.789Z,101722.44
2018-11-21T06:09:24.262Z,101726.86
2018-11-21T06:12:12.761Z,101723.82
2018-11-21T06:15:01.761Z,101728.21
2018-11-21T06:17:30.748Z,101735.55
2018-11-21T06:20:00.401Z,101741.94
2018-11-21T06:22:48.854Z,101753.23
2018-11-21T06:25:38.289Z,101754.97
2018-11-21T06:28:07.371Z,101753.97
2018-11-21T06:30:36.434Z,101757.31
2018-11-21T06:33:06.226Z,101760.34
2018-11-21T06:35:54.711Z,101752.22
2018-11-21T06:38:43.602Z,101767.17
2018-11-21T06:41:12.551Z,101757.91
2018-11-21T06:43:41.754Z,101770.62
2018-11-21T06:46:30.514Z,101774.61
2018-11-21T06:49:19.321Z,101775.73
2018-11-21T06:51:48.311Z,101767.12
2018-11-21T06:54:17.354Z,101783.90
2018-11-21T06:56:46.323Z,101788.27
2018-11-21T06:59:15.388Z,101788.40
2018-11-21T07:01:44.595Z,101796.30
2018-11-21T07:04:13.576Z,101806.14
2018-11-21T07:06:42.591Z,101801.99
2018-11-21T07:09:31.061Z,101810.05
2018-11-21T07:12:19.509Z,101808.64
2018-11-21T07:15:08.299Z,101829.45
2018-11-21T07:17:56.752Z,101830.44
2018-11-21T07:20:45.250Z,101825.21
2018-11-21T07:23:33.730Z,101825.61
2018-11-21T07:26:22.239Z,101826.41
2018-11-21T07:29:10.959Z,101825.21
2018-11-21T07:34:47.921Z,101838.54
2018-11-21T07:37:37.179Z,101828.12
2018-11-21T07:40:09.346Z,101829.41
2018-11-21T07:42:57.822Z,101836.73
2018-11-21T07:45:46.633Z,101833.70
2018-11-21T07:48:27.866Z,101834.19
2018-11-21T07:51:16.696Z,101838.54
2018-11-21T07:54:05.549Z,101848.45
2018-11-21T07:57:34.389Z,101831.93
2018-11-21T08:01:02.391Z,101832.79
2018-11-21T08:03:52.987Z,101845.95
2018-11-21T08:07:00.552Z,101843.44
2018-11-21T08:09:57.025Z,101839.30
2018-11-21T08:13:04.625Z,101845.95
2018-11-21T08:16:12.207Z,101856.94
2018-11-21T08:19:20.279Z,101859.80
2018-11-21T08:22:27.868Z,101859.83
2018-11-21T08:25:35.929Z,101852.66
2018-11-21T08:28:45.992Z,101855.21
2018-11-21T08:31:31.990Z,101860.02
2018-11-21T08:34:20.469Z,101862.00
2018-11-21T08:37:28.517Z,101858.41
2018-11-21T08:40:17.021Z,101857.23
2018-11-21T08:43:06.632Z,101870.37
2018-11-21T08:45:35.870Z,101870.63
2018-11-21T08:48:24.676Z,101871.70
2018-11-21T08:51:13.853Z,101874.84
2018-11-21T08:54:02.329Z,101888.23
2018-11-21T08:56:51.400Z,101874.34
2018-11-21T08:59:20.397Z,101885.92
2018-11-21T09:01:49.469Z,101887.25
2018-11-21T09:04:18.861Z,101880.98
2018-11-21T09:06:48.227Z,101885.12
2018-11-21T09:09:17.473Z,101878.70
2018-11-21T09:11:46.942Z,101892.99
2018-11-21T09:14:35.583Z,101891.12
2018-11-21T09:20:19.040Z,101899.17
2018-11-21T09:23:08.094Z,101903.47
2018-11-21T09:25:37.094Z,101909.24
2018-11-21T09:28:06.456Z,101909.04
2018-11-21T09:30:35.849Z,101918.63
2018-11-21T09:33:05.122Z,101917.36
2018-11-21T09:35:34.369Z,101923.81
2018-11-21T09:38:03.765Z,101925.48
2018-11-21T09:40:32.786Z,101924.09
2018-11-21T09:43:01.748Z,101919.66
2018-11-21T09:45:31.141Z,101931.55
2018-11-21T09:48:00.432Z,101930.35
2018-11-21T09:50:30.966Z,101931.05
2018-11-21T09:53:00.349Z,101926.14
2018-11-21T09:55:29.403Z,101930.55
2018-11-21T09:58:17.884Z,101932.91
2018-11-21T10:01:45.389Z,101940.80
2018-11-21T10:04:34.102Z,101941.02
2018-11-21T10:07:23.373Z,101948.16
2018-11-21T10:09:52.853Z,101952.08
2018-11-21T10:12:21.843Z,101948.94
2018-11-21T10:14:50.821Z,101951.30
2018-11-21T10:17:19.916Z,101960.16
2018-11-21T10:19:49.581Z,101955.87
2018-11-21T10:22:18.614Z,101953.15
2018-11-21T10:24:47.659Z,101958.50
2018-11-21T10:27:16.759Z,101949.42
2018-11-21T10:29:45.728Z,101959.41
2018-11-21T10:32:14.817Z,101957.93
2018-11-21T10:34:43.846Z,101955.86
2018-11-21T10:37:13.139Z,101961.45
2018-11-21T10:39:42.310Z,101966.23
2018-11-21T10:42:30.911Z,101958.04
2018-11-21T10:45:19.383Z,101965.57
2018-11-21T10:48:08.110Z,101960.56
2018-11-21T10:50:56.700Z,101955.58
2018-11-21T10:53:45.188Z,101961.97
2018-11-21T10:56:34.208Z,101955.49
2018-11-21T10:59:22.946Z,101957.25
2018-11-21T11:02:30.615Z,101962.72
2018-11-21T11:05:26.791Z,101962.55
2018-11-21T11:08:34.476Z,101958.88
2018-11-21T11:11:42.029Z,101959.41
2018-11-21T11:14:49.645Z,101960.27
2018-11-21T11:17:59.484Z,101953.92
2018-11-21T11:21:04.781Z,101957.84
2018-11-21T11:24:02.297Z,101957.66
2018-11-21T11:27:09.865Z,101947.68
2018-11-21T11:30:17.420Z,101948.55
2018-11-21T11:33:25.444Z,101944.89
2018-11-21T11:36:33.095Z,101938.92
2018-11-21T11:39:40.704Z,101949.91
2018-11-21T11:42:48.355Z,101942.75
2018-11-21T11:45:55.925Z,101938.97
2018-11-21T11:48:59.562Z,101949.20
2018-11-21T11:52:07.179Z,101952.52
2018-11-21T11:55:14.739Z,101958.39
2018-11-21T11:58:22.325Z,101962.04
2018-11-21T12:01:29.963Z,101954.84
2018-11-21T12:04:37.533Z,101955.96
2018-11-21T12:07:45.083Z,101952.34
2018-11-21T12:10:52.672Z,101954.00
2018-11-21T12:14:00.231Z,101952.27
2018-11-21T12:17:07.777Z,101954.95
2018-11-21T12:20:15.363Z,101948.73
2018-11-21T12:23:22.934Z,101947.83
2018-11-21T12:26:17.549Z,101950.12
2018-11-21T12:29:25.161Z,101947.67
2018-11-21T12:32:23.480Z,101958.42
2018-11-21T12:35:31.083Z,101947.72
2018-11-21T12:38:38.879Z,101935.37
2018-11-21T12:41:46.448Z,101931.44
2018-11-21T12:44:54.199Z,101935.59
2018-11-21T12:48:01.775Z,101937.22
2018-11-21T12:51:09.593Z,101939.63
2018-11-21T12:54:17.175Z,101932.20
2018-11-21T12:57:24.995Z,101925.73
2018-11-21T13:00:32.576Z,101929.03
2018-11-21T13:03:40.179Z,101925.48
2018-11-21T13:06:47.865Z,101937.08
2018-11-21T13:09:56.847Z,101927.55
2018-11-21T13:13:03.062Z,101932.80
2018-11-21T13:16:10.682Z,101929.77
2018-11-21T13:19:18.537Z,101935.84
2018-11-21T13:22:26.378Z,101938.77
2018-11-21T13:25:33.950Z,101936.41
2018-11-21T13:28:42.002Z,101939.80
2018-11-21T13:31:49.725Z,101936.53
2018-11-21T13:34:57.302Z,101936.31
2018-11-21T13:38:05.769Z,101942.78
2018-11-21T13:41:13.432Z,101942.59
2018-11-21T13:44:20.996Z,101943.80
2018-11-21T13:47:28.595Z,101950.02
2018-11-21T13:50:36.156Z,101958.03
2018-11-21T13:53:33.872Z,101962.74
2018-11-21T13:56:22.849Z,101957.64
2018-11-21T13:59:11.645Z,101962.73
2018-11-21T14:02:00.118Z,101950.22
2018-11-21T14:04:48.665Z,101952.33
2018-11-21T14:07:37.620Z,101954.22
2018-11-21T14:10:26.116Z,101955.83
2018-11-21T14:13:15.085Z,101959.37
2018-11-21T14:16:03.741Z,101964.76
2018-11-21T14:18:52.201Z,101966.46
2018-11-21T14:21:40.689Z,101964.68
2018-11-21T14:24:29.236Z,101960.39
2018-11-21T14:27:17.886Z,101967.73
2018-11-21T14:30:10.645Z,101968.20
2018-11-21T14:32:59.144Z,101967.81
2018-11-21T14:35:47.665Z,101964.50
2018-11-21T14:38:36.140Z,101971.73
2018-11-21T14:41:24.667Z,101968.47
2018-11-21T14:44:13.149Z,101960.48
2018-11-21T14:47:02.434Z,101967.48
2018-11-21T14:50:15.746Z,101963.10
2018-11-21T14:53:04.213Z,101981.89
2018-11-21T14:55:52.790Z,101972.49
2018-11-21T14:58:41.345Z,101973.98
2018-11-21T15:01:29.871Z,101974.63
2018-11-21T15:04:18.577Z,101982.55
2018-11-21T15:07:07.636Z,101979.06
2018-11-21T15:09:56.150Z,101981.11
2018-11-21T15:12:44.947Z,101984.01
2018-11-21T15:15:34.008Z,102004.05
2018-11-21T15:18:22.516Z,102001.42
2018-11-21T15:21:16.421Z,102000.05
2018-11-21T15:23:59.693Z,101998.71
2018-11-21T15:26:48.206Z,102002.45
2018-11-21T15:29:36.767Z,102003.20
2018-11-21T15:32:25.238Z,102016.42
2018-11-21T15:35:13.721Z,102006.35
2018-11-21T15:38:02.232Z,102007.14
2018-11-21T15:40:51.016Z,102013.37
2018-11-21T15:43:39.960Z,102008.98
2018-11-21T15:46:28.809Z,102013.20
2018-11-21T15:49:17.339Z,102017.09
2018-11-21T15:52:05.857Z,102021.67
2018-11-21T15:54:54.332Z,102016.68
2018-11-21T15:57:42.901Z,102026.53
2018-11-21T16:00:33.124Z,102029.22
2018-11-21T16:03:23.568Z,102023.85
2018-11-21T16:06:10.136Z,102030.45
2018-11-21T16:08:58.648Z,102019.62
2018-11-21T16:11:47.179Z,102037.74
2018-11-21T16:14:35.759Z,102043.89
2018-11-21T16:17:24.283Z,102036.87
2018-11-21T16:20:14.512Z,102030.04
2018-11-21T16:23:03.052Z,102042.29
2018-11-21T16:25:51.528Z,102051.11
2018-11-21T16:28:40.082Z,102054.29
2018-11-21T16:31:28.573Z,102057.82
2018-11-21T16:34:17.091Z,102058.20
2018-11-21T16:37:05.549Z,102059.94
2018-11-21T16:39:54.050Z,102060.22
2018-11-21T16:42:42.550Z,102056.35
2018-11-21T16:45:32.758Z,102072.62
2018-11-21T16:48:21.288Z,102074.10
2018-11-21T16:51:09.772Z,102067.03
2018-11-21T16:53:58.293Z,102075.65
2018-11-21T16:56:46.756Z,102078.67
2018-11-21T16:59:35.844Z,102084.86
2018-11-21T17:02:24.414Z,102078.31
2018-11-21T17:05:14.325Z,102073.50
2018-11-21T17:08:02.892Z,102074.73
2018-11-21T17:10:51.397Z,102075.81
2018-11-21T17:13:39.944Z,102076.77
2018-11-21T17:16:28.389Z,102066.80
2018-11-21T17:22:11.245Z,102067.48
2018-11-21T17:24:59.843Z,102061.71
2018-11-21T17:27:48.745Z,102076.48
2018-11-21T17:30:37.280Z,102078.23
2018-11-21T17:33:45.627Z,102078.55
2018-11-21T17:36:33.859Z,102081.33
2018-11-21T17:39:22.410Z,102076.48
2018-11-21T17:42:10.992Z,102082.45
2018-11-21T17:44:59.468Z,102083.75
2018-11-21T17:48:07.120Z,102084.37
2018-11-21T17:51:14.679Z,102086.36
2018-11-21T17:54:04.135Z,102096.23
2018-11-21T17:56:52.686Z,102098.77
2018-11-21T17:59:41.495Z,102095.55
2018-11-21T18:02:30.029Z,102094.37
2018-11-21T18:05:20.963Z,102098.64
2018-11-21T18:08:09.532Z,102110.24
2018-11-21T18:10:58.050Z,102094.22
2018-11-21T18:13:46.538Z,102103.09
2018-11-21T18:16:35.058Z,102106.18
2018-11-21T18:19:24.028Z,102114.89
2018-11-21T18:22:12.525Z,102112.10
2018-11-21T18:25:01.294Z,102103.73
2018-11-21T18:27:49.788Z,102104.23
2018-11-21T18:30:38.277Z,102107.73
2018-11-21T18:33:26.798Z,102105.47
2018-11-21T18:36:15.390Z,102111.53
2018-11-21T18:39:05.116Z,102112.48
2018-11-21T18:41:57.963Z,102121.41
2018-11-21T18:44:42.472Z,102109.61
2018-11-21T18:47:31.202Z,102110.34
2018-11-21T18:53:27.963Z,102113.44
2018-11-21T18:56:47.123Z,102110.67
2018-11-21T18:59:58.206Z,102112.06
2018-11-21T19:02:47.155Z,102118.47
2018-11-21T19:05:35.990Z,102116.00
2018-11-21T19:08:26.796Z,102113.84
2018-11-21T19:11:15.291Z,102119.44
2018-11-21T19:14:03.850Z,102115.60
2018-11-21T19:16:53.888Z,102101.14
2018-11-21T19:19:42.617Z,102114.94
2018-11-21T19:22:32.369Z,102118.30
2018-11-21T19:28:15.942Z,102123.51
2018-11-21T19:31:05.386Z,102129.30
2018-11-21T19:33:55.524Z,102131.05
2018-11-21T19:36:47.273Z,102135.47
2018-11-21T19:39:34.063Z,102129.55
2018-11-21T19:42:23.697Z,102132.64
2018-11-21T19:45:32.405Z,102134.00
2018-11-21T19:48:22.316Z,102135.73
2018-11-21T19:51:11.438Z,102141.59
2018-11-21T19:54:01.153Z,102142.89
2018-11-21T19:56:50.844Z,102145.05
2018-11-21T20:02:34.160Z,102136.10
2018-11-21T20:05:22.883Z,102136.66
2018-11-21T20:08:12.416Z,102149.09
2018-11-21T20:11:00.957Z,102152.39
2018-11-21T20:13:49.982Z,102161.09
2018-11-21T20:16:38.282Z,102153.15
2018-11-21T20:19:27.503Z,102160.45
2018-11-21T20:22:19.099Z,102165.70
2018-11-21T20:25:10.396Z,102161.34
2018-11-21T20:27:58.898Z,102156.45
2018-11-21T20:30:47.467Z,102170.55
2018-11-21T20:33:36.037Z,102162.68
2018-11-21T20:36:24.775Z,102158.13
2018-11-21T20:39:14.426Z,102145.03
2018-11-21T20:42:03.239Z,102153.88
2018-11-21T20:47:46.348Z,102155.27
2018-11-21T20:50:34.916Z,102154.80
2018-11-21T20:53:23.874Z,102151.85
2018-11-21T20:56:13.067Z,102152.38
2018-11-21T20:59:02.244Z,102150.99
2018-11-21T21:01:50.840Z,102151.27
2018-11-21T21:04:39.856Z,102144.52
2018-11-21T21:07:28.555Z,102147.54
2018-11-21T21:10:19.180Z,102148.73
2018-11-21T21:13:08.064Z,102150.36
2018-11-21T21:15:56.672Z,102142.54
2018-11-21T21:18:45.488Z,102144.27
2018-11-21T21:21:34.028Z,102148.25
2018-11-21T21:24:22.634Z,102140.21
2018-11-21T21:27:30.516Z,102139.99
2018-11-21T21:30:23.876Z,102141.70
2018-11-21T21:33:12.661Z,102139.55
2018-11-21T21:36:02.142Z,102135.80
2018-11-21T21:38:50.625Z,102133.34
2018-11-21T21:41:39.547Z,102137.22
2018-11-21T21:44:28.288Z,102138.68
2018-11-21T21:50:26.211Z,102129.19
2018-11-21T21:53:15.272Z,102133.06
2018-11-21T21:56:04.140Z,102130.62
2018-11-21T21:58:53.167Z,102137.85
2018-11-21T22:01:42.044Z,102135.52
2018-11-21T22:04:30.561Z,102136.21
2018-11-21T22:07:19.576Z,102137.13
2018-11-21T22:10:09.908Z,102136.70
2018-11-21T22:12:58.583Z,102134.45
2018-11-21T22:15:47.374Z,102128.16
2018-11-21T22:18:36.424Z,102136.81
2018-11-21T22:21:25.049Z,102141.34
2018-11-21T22:24:13.873Z,102140.79
2018-11-21T22:27:02.383Z,102147.80
2018-11-21T22:29:51.049Z,102142.62
2018-11-21T22:32:58.705Z,102139.42
2018-11-21T22:35:47.407Z,102139.73
2018-11-21T22:38:36.293Z,102135.03
2018-11-21T22:44:19.520Z,102149.48
2018-11-21T22:47:08.060Z,102139.61
2018-11-21T22:49:56.827Z,102146.28
2018-11-21T22:52:45.411Z,102145.70
2018-11-21T22:55:33.952Z,102149.06
2018-11-21T22:58:22.748Z,102153.50
2018-11-21T23:01:11.322Z,102150.34
2018-11-21T23:03:59.745Z,102137.68
2018-11-21T23:06:29.128Z,102144.73
2018-11-21T23:09:17.666Z,102143.58
2018-11-21T23:12:06.397Z,102151.30
2018-11-21T23:14:55.172Z,102140.09
2018-11-21T23:17:43.708Z,102153.26
2018-11-21T23:20:32.361Z,102151.51
2018-11-21T23:23:21.199Z,102143.72
2018-11-21T23:26:09.691Z,102149.37
2018-11-21T23:28:58.948Z,102143.58
2018-11-21T23:31:47.648Z,102148.54
2018-11-21T23:34:36.231Z,102141.09
2018-11-21T23:37:25.240Z,102146.17
2018-11-21T23:40:15.359Z,102148.89
2018-11-21T23:43:23.002Z,102144.23
2018-11-21T23:46:11.577Z,102141.38
2018-11-21T23:49:00.743Z,102149.31
2018-11-21T23:51:49.351Z,102146.03
2018-11-21T23:54:37.976Z,102136.59
2018-11-21T23:57:26.640Z,102141.34
2018-11-21T23:59:56.579Z,102126.19
